sensor_id;sensor_type;location;lat;lon;timestamp;temperature;humidity
52709;DHT22;38606;52.986;6.980;2023-04-07T00:00:07;7.80;99.90
52709;DHT22;38606;52.986;6.980;2023-04-07T00:02:33;7.70;99.90
52709;DHT22;38606;52.986;6.980;2023-04-07T00:04:59;7.90;99.90
52709;DHT22;38606;52.986;6.980;2023-04-07T00:07:27;8.20;99.90
52709;DHT22;38606;52.986;6.980;2023-04-07T00:09:52;7.80;99.90
52709;DHT22;38606;52.986;6.980;2023-04-07T00:12:18;7.60;99.90
52709;DHT22;38606;52.986;6.980;2023-04-07T00:14:44;7.90;99.90
52709;DHT22;38606;52.986;6.980;2023-04-07T00:17:10;7.90;99.90
52709;DHT22;38606;52.986;6.980;2023-04-07T00:19:35;7.80;99.90
52709;DHT22;38606;52.986;6.980;2023-04-07T00:22:01;7.80;99.90
52709;DHT22;38606;52.986;6.980;2023-04-07T00:24:27;7.90;99.90
52709;DHT22;38606;52.986;6.980;2023-04-07T00:26:53;7.70;99.90
52709;DHT22;38606;52.986;6.980;2023-04-07T00:29:18;7.70;99.90
52709;DHT22;38606;52.986;6.980;2023-04-07T00:31:44;7.90;99.90
52709;DHT22;38606;52.986;6.980;2023-04-07T00:34:10;7.80;99.90
52709;DHT22;38606;52.986;6.980;2023-04-07T00:36:36;7.80;99.90
52709;DHT22;38606;52.986;6.980;2023-04-07T00:39:02;7.70;99.90
52709;DHT22;38606;52.986;6.980;2023-04-07T00:41:27;7.80;99.90
52709;DHT22;38606;52.986;6.980;2023-04-07T00:43:53;7.80;99.90
52709;DHT22;38606;52.986;6.980;2023-04-07T00:46:21;7.70;99.90
52709;DHT22;38606;52.986;6.980;2023-04-07T00:48:47;7.80;99.90
52709;DHT22;38606;52.986;6.980;2023-04-07T00:51:13;7.90;99.90
52709;DHT22;38606;52.986;6.980;2023-04-07T00:53:40;7.80;99.90
52709;DHT22;38606;52.986;6.980;2023-04-07T00:56:06;7.70;99.90
52709;DHT22;38606;52.986;6.980;2023-04-07T00:58:32;7.80;99.90
52709;DHT22;38606;52.986;6.980;2023-04-07T01:01:08;7.90;99.90
52709;DHT22;38606;52.986;6.980;2023-04-07T01:03:56;7.70;99.90
52709;DHT22;38606;52.986;6.980;2023-04-07T01:06:25;7.80;99.90
52709;DHT22;38606;52.986;6.980;2023-04-07T01:09:06;7.70;99.90
52709;DHT22;38606;52.986;6.980;2023-04-07T01:11:58;8.00;99.90
52709;DHT22;38606;52.986;6.980;2023-04-07T01:14:25;7.80;99.90
52709;DHT22;38606;52.986;6.980;2023-04-07T01:16:56;7.80;99.90
52709;DHT22;38606;52.986;6.980;2023-04-07T01:21:52;7.70;99.90
52709;DHT22;38606;52.986;6.980;2023-04-07T01:30:09;7.80;99.90
52709;DHT22;38606;52.986;6.980;2023-04-07T01:32:36;7.70;99.90
52709;DHT22;38606;52.986;6.980;2023-04-07T01:35:03;7.80;99.90
52709;DHT22;38606;52.986;6.980;2023-04-07T01:37:29;7.80;99.90
52709;DHT22;38606;52.986;6.980;2023-04-07T01:39:56;8.00;99.90
52709;DHT22;38606;52.986;6.980;2023-04-07T01:42:22;7.90;99.90
52709;DHT22;38606;52.986;6.980;2023-04-07T01:44:49;7.50;99.90
52709;DHT22;38606;52.986;6.980;2023-04-07T01:47:15;8.00;99.90
52709;DHT22;38606;52.986;6.980;2023-04-07T01:49:43;7.80;99.90
52709;DHT22;38606;52.986;6.980;2023-04-07T01:52:10;7.90;99.90
52709;DHT22;38606;52.986;6.980;2023-04-07T01:54:36;7.90;99.90
52709;DHT22;38606;52.986;6.980;2023-04-07T01:57:02;7.70;99.90
52709;DHT22;38606;52.986;6.980;2023-04-07T01:59:29;7.90;99.90
52709;DHT22;38606;52.986;6.980;2023-04-07T02:01:55;8.00;99.90
52709;DHT22;38606;52.986;6.980;2023-04-07T02:04:36;7.80;99.90
52709;DHT22;38606;52.986;6.980;2023-04-07T02:07:44;7.80;99.90
52709;DHT22;38606;52.986;6.980;2023-04-07T02:10:13;7.70;99.90
52709;DHT22;38606;52.986;6.980;2023-04-07T02:12:40;7.90;99.90
52709;DHT22;38606;52.986;6.980;2023-04-07T02:15:08;7.70;99.90
52709;DHT22;38606;52.986;6.980;2023-04-07T02:17:39;7.60;99.90
52709;DHT22;38606;52.986;6.980;2023-04-07T02:20:11;7.90;99.90
52709;DHT22;38606;52.986;6.980;2023-04-07T02:22:38;7.70;99.90
52709;DHT22;38606;52.986;6.980;2023-04-07T02:25:30;8.70;99.90
52709;DHT22;38606;52.986;6.980;2023-04-07T02:27:57;7.70;99.90
52709;DHT22;38606;52.986;6.980;2023-04-07T02:30:24;7.80;99.90
52709;DHT22;38606;52.986;6.980;2023-04-07T02:32:50;7.70;99.90
52709;DHT22;38606;52.986;6.980;2023-04-07T02:35:17;7.80;99.90
52709;DHT22;38606;52.986;6.980;2023-04-07T02:37:43;7.90;99.90
52709;DHT22;38606;52.986;6.980;2023-04-07T02:40:10;7.80;99.90
52709;DHT22;38606;52.986;6.980;2023-04-07T02:42:36;7.70;99.90
52709;DHT22;38606;52.986;6.980;2023-04-07T02:45:03;7.70;99.90
52709;DHT22;38606;52.986;6.980;2023-04-07T02:47:29;7.60;99.90
52709;DHT22;38606;52.986;6.980;2023-04-07T02:49:55;7.60;99.90
52709;DHT22;38606;52.986;6.980;2023-04-07T02:52:21;7.50;99.90
52709;DHT22;38606;52.986;6.980;2023-04-07T02:54:46;7.70;99.90
52709;DHT22;38606;52.986;6.980;2023-04-07T02:57:12;7.70;99.90
52709;DHT22;38606;52.986;6.980;2023-04-07T02:59:39;7.80;99.90
52709;DHT22;38606;52.986;6.980;2023-04-07T03:02:04;7.70;99.90
52709;DHT22;38606;52.986;6.980;2023-04-07T03:04:30;7.60;99.90
52709;DHT22;38606;52.986;6.980;2023-04-07T03:06:56;7.70;99.90
52709;DHT22;38606;52.986;6.980;2023-04-07T03:09:22;7.90;99.90
52709;DHT22;38606;52.986;6.980;2023-04-07T03:11:48;7.60;99.90
52709;DHT22;38606;52.986;6.980;2023-04-07T03:14:14;7.90;99.90
52709;DHT22;38606;52.986;6.980;2023-04-07T03:16:41;7.50;99.90
52709;DHT22;38606;52.986;6.980;2023-04-07T03:19:07;7.40;99.90
52709;DHT22;38606;52.986;6.980;2023-04-07T03:21:33;7.50;99.90
52709;DHT22;38606;52.986;6.980;2023-04-07T03:23:59;8.10;99.90
52709;DHT22;38606;52.986;6.980;2023-04-07T03:26:25;7.50;99.90
52709;DHT22;38606;52.986;6.980;2023-04-07T03:28:51;8.10;99.90
52709;DHT22;38606;52.986;6.980;2023-04-07T03:31:16;7.50;99.90
52709;DHT22;38606;52.986;6.980;2023-04-07T03:33:42;7.60;99.90
52709;DHT22;38606;52.986;6.980;2023-04-07T03:36:08;7.50;99.90
52709;DHT22;38606;52.986;6.980;2023-04-07T03:38:34;7.50;99.90
52709;DHT22;38606;52.986;6.980;2023-04-07T03:40:59;7.50;99.90
52709;DHT22;38606;52.986;6.980;2023-04-07T03:43:25;7.40;99.90
52709;DHT22;38606;52.986;6.980;2023-04-07T03:45:52;8.20;99.90
52709;DHT22;38606;52.986;6.980;2023-04-07T03:48:18;7.40;99.90
52709;DHT22;38606;52.986;6.980;2023-04-07T03:50:45;7.50;99.90
52709;DHT22;38606;52.986;6.980;2023-04-07T03:53:11;7.50;99.90
52709;DHT22;38606;52.986;6.980;2023-04-07T03:55:41;7.40;99.90
52709;DHT22;38606;52.986;6.980;2023-04-07T03:58:08;8.00;99.90
52709;DHT22;38606;52.986;6.980;2023-04-07T04:00:34;7.40;99.90
52709;DHT22;38606;52.986;6.980;2023-04-07T04:03:00;7.60;99.90
52709;DHT22;38606;52.986;6.980;2023-04-07T04:05:25;7.40;99.90
52709;DHT22;38606;52.986;6.980;2023-04-07T04:07:51;8.10;99.90
52709;DHT22;38606;52.986;6.980;2023-04-07T04:10:18;7.50;99.90
52709;DHT22;38606;52.986;6.980;2023-04-07T04:12:45;7.30;99.90
52709;DHT22;38606;52.986;6.980;2023-04-07T04:15:11;7.20;99.90
52709;DHT22;38606;52.986;6.980;2023-04-07T04:17:36;7.30;99.90
52709;DHT22;38606;52.986;6.980;2023-04-07T04:20:03;7.50;99.90
52709;DHT22;38606;52.986;6.980;2023-04-07T04:22:28;7.30;99.90
52709;DHT22;38606;52.986;6.980;2023-04-07T04:24:54;7.50;99.90
52709;DHT22;38606;52.986;6.980;2023-04-07T04:27:20;7.40;99.90
52709;DHT22;38606;52.986;6.980;2023-04-07T04:29:46;7.30;99.90
52709;DHT22;38606;52.986;6.980;2023-04-07T04:32:11;7.30;99.90
52709;DHT22;38606;52.986;6.980;2023-04-07T04:34:38;7.30;99.90
52709;DHT22;38606;52.986;6.980;2023-04-07T04:37:06;7.30;99.90
52709;DHT22;38606;52.986;6.980;2023-04-07T04:39:32;7.40;99.90
52709;DHT22;38606;52.986;6.980;2023-04-07T04:41:58;7.30;99.90
52709;DHT22;38606;52.986;6.980;2023-04-07T04:44:24;7.40;99.90
52709;DHT22;38606;52.986;6.980;2023-04-07T04:46:50;7.30;99.90
52709;DHT22;38606;52.986;6.980;2023-04-07T04:49:17;7.40;99.90
52709;DHT22;38606;52.986;6.980;2023-04-07T04:51:44;7.40;99.90
52709;DHT22;38606;52.986;6.980;2023-04-07T04:54:10;7.50;99.90
52709;DHT22;38606;52.986;6.980;2023-04-07T04:56:35;8.60;99.90
52709;DHT22;38606;52.986;6.980;2023-04-07T04:59:02;7.10;99.90
52709;DHT22;38606;52.986;6.980;2023-04-07T05:01:28;7.70;99.90
52709;DHT22;38606;52.986;6.980;2023-04-07T05:03:54;7.30;99.90
52709;DHT22;38606;52.986;6.980;2023-04-07T05:06:19;7.10;99.90
52709;DHT22;38606;52.986;6.980;2023-04-07T05:08:45;7.30;99.90
52709;DHT22;38606;52.986;6.980;2023-04-07T05:11:11;7.30;99.90
52709;DHT22;38606;52.986;6.980;2023-04-07T05:13:37;8.50;99.90
52709;DHT22;38606;52.986;6.980;2023-04-07T05:16:03;7.20;99.90
52709;DHT22;38606;52.986;6.980;2023-04-07T05:18:29;7.50;99.90
52709;DHT22;38606;52.986;6.980;2023-04-07T05:20:54;7.20;99.90
52709;DHT22;38606;52.986;6.980;2023-04-07T05:23:20;7.20;99.90
52709;DHT22;38606;52.986;6.980;2023-04-07T05:25:46;7.30;99.90
52709;DHT22;38606;52.986;6.980;2023-04-07T05:28:12;7.50;99.90
52709;DHT22;38606;52.986;6.980;2023-04-07T05:30:37;7.40;99.90
52709;DHT22;38606;52.986;6.980;2023-04-07T05:33:03;7.20;99.90
52709;DHT22;38606;52.986;6.980;2023-04-07T05:35:29;7.10;99.90
52709;DHT22;38606;52.986;6.980;2023-04-07T05:37:54;7.00;99.90
52709;DHT22;38606;52.986;6.980;2023-04-07T05:40:20;7.30;99.90
52709;DHT22;38606;52.986;6.980;2023-04-07T05:42:46;7.30;99.90
52709;DHT22;38606;52.986;6.980;2023-04-07T05:45:12;7.50;99.90
52709;DHT22;38606;52.986;6.980;2023-04-07T05:47:37;7.40;99.90
52709;DHT22;38606;52.986;6.980;2023-04-07T05:50:03;7.30;99.90
52709;DHT22;38606;52.986;6.980;2023-04-07T05:52:29;7.50;99.90
52709;DHT22;38606;52.986;6.980;2023-04-07T05:54:55;7.30;99.90
52709;DHT22;38606;52.986;6.980;2023-04-07T05:57:21;7.40;99.90
52709;DHT22;38606;52.986;6.980;2023-04-07T05:59:47;7.10;99.90
52709;DHT22;38606;52.986;6.980;2023-04-07T06:02:13;7.30;99.90
52709;DHT22;38606;52.986;6.980;2023-04-07T06:04:39;7.30;99.90
52709;DHT22;38606;52.986;6.980;2023-04-07T06:07:05;7.30;99.90
52709;DHT22;38606;52.986;6.980;2023-04-07T06:09:31;7.40;99.90
52709;DHT22;38606;52.986;6.980;2023-04-07T06:11:57;7.40;99.90
52709;DHT22;38606;52.986;6.980;2023-04-07T06:14:23;7.30;99.90
52709;DHT22;38606;52.986;6.980;2023-04-07T06:16:49;7.30;99.90
52709;DHT22;38606;52.986;6.980;2023-04-07T06:19:14;7.40;99.90
52709;DHT22;38606;52.986;6.980;2023-04-07T06:21:40;7.60;99.90
52709;DHT22;38606;52.986;6.980;2023-04-07T06:24:06;8.60;99.90
52709;DHT22;38606;52.986;6.980;2023-04-07T06:26:32;7.60;99.90
52709;DHT22;38606;52.986;6.980;2023-04-07T06:28:58;7.70;99.90
52709;DHT22;38606;52.986;6.980;2023-04-07T06:31:24;7.60;99.90
52709;DHT22;38606;52.986;6.980;2023-04-07T06:33:50;7.70;99.90
52709;DHT22;38606;52.986;6.980;2023-04-07T06:36:16;7.50;99.90
52709;DHT22;38606;52.986;6.980;2023-04-07T06:38:42;6.30;99.90
52709;DHT22;38606;52.986;6.980;2023-04-07T06:41:08;7.60;99.90
52709;DHT22;38606;52.986;6.980;2023-04-07T06:43:42;7.70;99.90
52709;DHT22;38606;52.986;6.980;2023-04-07T06:46:07;8.10;99.90
52709;DHT22;38606;52.986;6.980;2023-04-07T06:48:33;7.80;99.90
52709;DHT22;38606;52.986;6.980;2023-04-07T06:50:59;8.00;99.90
52709;DHT22;38606;52.986;6.980;2023-04-07T06:53:24;7.70;99.90
52709;DHT22;38606;52.986;6.980;2023-04-07T06:55:50;7.90;99.90
52709;DHT22;38606;52.986;6.980;2023-04-07T06:58:16;7.80;99.90
52709;DHT22;38606;52.986;6.980;2023-04-07T07:00:41;8.10;99.90
52709;DHT22;38606;52.986;6.980;2023-04-07T07:03:07;9.20;99.90
52709;DHT22;38606;52.986;6.980;2023-04-07T07:05:33;8.20;99.90
52709;DHT22;38606;52.986;6.980;2023-04-07T07:07:58;8.30;99.90
52709;DHT22;38606;52.986;6.980;2023-04-07T07:10:24;8.30;99.90
52709;DHT22;38606;52.986;6.980;2023-04-07T07:12:50;8.30;99.90
52709;DHT22;38606;52.986;6.980;2023-04-07T07:15:16;8.30;99.90
52709;DHT22;38606;52.986;6.980;2023-04-07T07:17:42;8.30;99.90
52709;DHT22;38606;52.986;6.980;2023-04-07T07:20:09;8.20;99.90
52709;DHT22;38606;52.986;6.980;2023-04-07T07:22:35;8.20;99.90
52709;DHT22;38606;52.986;6.980;2023-04-07T07:25:02;8.90;99.90
52709;DHT22;38606;52.986;6.980;2023-04-07T07:27:28;8.20;99.90
52709;DHT22;38606;52.986;6.980;2023-04-07T07:29:54;8.60;99.90
52709;DHT22;38606;52.986;6.980;2023-04-07T07:32:20;8.40;99.90
52709;DHT22;38606;52.986;6.980;2023-04-07T07:34:45;9.10;99.90
52709;DHT22;38606;52.986;6.980;2023-04-07T07:37:11;8.90;99.90
52709;DHT22;38606;52.986;6.980;2023-04-07T07:39:37;8.40;99.90
52709;DHT22;38606;52.986;6.980;2023-04-07T07:42:03;8.50;99.90
52709;DHT22;38606;52.986;6.980;2023-04-07T07:44:28;8.60;99.90
52709;DHT22;38606;52.986;6.980;2023-04-07T07:46:54;8.60;99.90
52709;DHT22;38606;52.986;6.980;2023-04-07T07:49:20;8.90;99.90
52709;DHT22;38606;52.986;6.980;2023-04-07T07:51:46;8.70;99.90
52709;DHT22;38606;52.986;6.980;2023-04-07T07:54:12;8.80;99.90
52709;DHT22;38606;52.986;6.980;2023-04-07T07:56:38;8.70;99.90
52709;DHT22;38606;52.986;6.980;2023-04-07T07:59:04;8.50;99.90
52709;DHT22;38606;52.986;6.980;2023-04-07T08:01:32;8.90;99.90
52709;DHT22;38606;52.986;6.980;2023-04-07T08:03:58;8.90;99.90
52709;DHT22;38606;52.986;6.980;2023-04-07T08:06:23;9.20;99.90
52709;DHT22;38606;52.986;6.980;2023-04-07T08:08:50;9.20;99.90
52709;DHT22;38606;52.986;6.980;2023-04-07T08:11:15;9.20;99.90
52709;DHT22;38606;52.986;6.980;2023-04-07T08:13:41;9.00;99.90
52709;DHT22;38606;52.986;6.980;2023-04-07T08:16:10;8.80;99.90
52709;DHT22;38606;52.986;6.980;2023-04-07T08:18:36;9.10;99.90
52709;DHT22;38606;52.986;6.980;2023-04-07T08:21:03;9.20;99.90
52709;DHT22;38606;52.986;6.980;2023-04-07T08:23:30;8.90;99.90
52709;DHT22;38606;52.986;6.980;2023-04-07T08:25:56;8.80;99.90
52709;DHT22;38606;52.986;6.980;2023-04-07T08:28:23;9.00;99.90
52709;DHT22;38606;52.986;6.980;2023-04-07T08:30:49;9.00;99.90
52709;DHT22;38606;52.986;6.980;2023-04-07T08:33:14;9.10;99.90
52709;DHT22;38606;52.986;6.980;2023-04-07T08:35:40;9.30;99.90
52709;DHT22;38606;52.986;6.980;2023-04-07T08:38:06;9.10;99.90
52709;DHT22;38606;52.986;6.980;2023-04-07T08:40:33;9.40;99.90
52709;DHT22;38606;52.986;6.980;2023-04-07T08:43:00;9.50;99.90
52709;DHT22;38606;52.986;6.980;2023-04-07T08:45:29;9.40;99.90
52709;DHT22;38606;52.986;6.980;2023-04-07T08:47:57;9.30;99.90
52709;DHT22;38606;52.986;6.980;2023-04-07T08:50:26;9.30;99.90
52709;DHT22;38606;52.986;6.980;2023-04-07T08:52:54;9.60;99.90
52709;DHT22;38606;52.986;6.980;2023-04-07T08:55:20;9.60;99.90
52709;DHT22;38606;52.986;6.980;2023-04-07T08:57:46;9.50;99.90
52709;DHT22;38606;52.986;6.980;2023-04-07T09:00:13;9.50;99.90
52709;DHT22;38606;52.986;6.980;2023-04-07T09:02:40;9.60;99.90
52709;DHT22;38606;52.986;6.980;2023-04-07T09:05:10;9.60;99.90
52709;DHT22;38606;52.986;6.980;2023-04-07T09:07:37;9.70;99.90
52709;DHT22;38606;52.986;6.980;2023-04-07T09:10:05;10.40;99.90
52709;DHT22;38606;52.986;6.980;2023-04-07T09:12:32;10.00;99.90
52709;DHT22;38606;52.986;6.980;2023-04-07T09:14:58;9.70;99.90
52709;DHT22;38606;52.986;6.980;2023-04-07T09:17:25;9.70;99.90
52709;DHT22;38606;52.986;6.980;2023-04-07T09:19:54;9.70;99.90
52709;DHT22;38606;52.986;6.980;2023-04-07T09:22:40;9.70;99.90
52709;DHT22;38606;52.986;6.980;2023-04-07T09:25:18;10.70;99.90
52709;DHT22;38606;52.986;6.980;2023-04-07T09:27:54;10.10;99.90
52709;DHT22;38606;52.986;6.980;2023-04-07T09:30:20;10.00;99.90
52709;DHT22;38606;52.986;6.980;2023-04-07T09:32:46;10.20;99.90
52709;DHT22;38606;52.986;6.980;2023-04-07T09:35:12;10.50;99.90
52709;DHT22;38606;52.986;6.980;2023-04-07T09:37:37;10.70;99.90
52709;DHT22;38606;52.986;6.980;2023-04-07T09:40:04;10.80;99.90
52709;DHT22;38606;52.986;6.980;2023-04-07T09:42:31;10.70;99.90
52709;DHT22;38606;52.986;6.980;2023-04-07T09:44:59;10.90;99.90
52709;DHT22;38606;52.986;6.980;2023-04-07T09:47:26;11.00;99.90
52709;DHT22;38606;52.986;6.980;2023-04-07T09:49:55;11.00;99.90
52709;DHT22;38606;52.986;6.980;2023-04-07T09:52:24;10.90;99.90
52709;DHT22;38606;52.986;6.980;2023-04-07T09:54:51;11.10;99.90
52709;DHT22;38606;52.986;6.980;2023-04-07T09:57:18;10.90;99.90
52709;DHT22;38606;52.986;6.980;2023-04-07T09:59:45;11.10;99.90
52709;DHT22;38606;52.986;6.980;2023-04-07T10:02:13;11.30;99.90
52709;DHT22;38606;52.986;6.980;2023-04-07T10:04:39;11.20;99.90
52709;DHT22;38606;52.986;6.980;2023-04-07T10:07:05;11.30;99.90
52709;DHT22;38606;52.986;6.980;2023-04-07T10:09:32;11.30;99.90
52709;DHT22;38606;52.986;6.980;2023-04-07T10:11:58;11.20;99.90
52709;DHT22;38606;52.986;6.980;2023-04-07T10:14:31;11.30;99.90
52709;DHT22;38606;52.986;6.980;2023-04-07T10:16:59;11.50;99.90
52709;DHT22;38606;52.986;6.980;2023-04-07T10:19:30;11.60;99.90
52709;DHT22;38606;52.986;6.980;2023-04-07T10:21:57;11.70;99.90
52709;DHT22;38606;52.986;6.980;2023-04-07T10:27:11;11.80;99.90
52709;DHT22;38606;52.986;6.980;2023-04-07T10:29:41;11.80;99.90
52709;DHT22;38606;52.986;6.980;2023-04-07T10:32:08;12.00;99.90
52709;DHT22;38606;52.986;6.980;2023-04-07T10:37:16;12.00;99.90
52709;DHT22;38606;52.986;6.980;2023-04-07T10:39:44;11.90;99.90
52709;DHT22;38606;52.986;6.980;2023-04-07T10:42:54;12.10;99.90
52709;DHT22;38606;52.986;6.980;2023-04-07T10:48:12;12.10;99.90
52709;DHT22;38606;52.986;6.980;2023-04-07T10:50:38;12.30;99.90
52709;DHT22;38606;52.986;6.980;2023-04-07T10:53:09;12.40;99.90
52709;DHT22;38606;52.986;6.980;2023-04-07T10:55:46;12.40;99.90
52709;DHT22;38606;52.986;6.980;2023-04-07T11:03:26;12.60;99.90
52709;DHT22;38606;52.986;6.980;2023-04-07T11:05:51;12.50;99.90
52709;DHT22;38606;52.986;6.980;2023-04-07T11:10:58;12.70;99.90
52709;DHT22;38606;52.986;6.980;2023-04-07T11:13:24;12.70;99.90
52709;DHT22;38606;52.986;6.980;2023-04-07T11:15:50;12.50;99.90
52709;DHT22;38606;52.986;6.980;2023-04-07T11:18:20;12.60;99.90
52709;DHT22;38606;52.986;6.980;2023-04-07T11:20:56;12.70;99.90
52709;DHT22;38606;52.986;6.980;2023-04-07T11:23:23;13.10;99.90
52709;DHT22;38606;52.986;6.980;2023-04-07T11:25:59;13.00;99.90
52709;DHT22;38606;52.986;6.980;2023-04-07T11:28:27;13.00;99.90
52709;DHT22;38606;52.986;6.980;2023-04-07T11:30:54;13.00;99.90
52709;DHT22;38606;52.986;6.980;2023-04-07T11:33:25;13.20;99.90
52709;DHT22;38606;52.986;6.980;2023-04-07T11:36:00;13.30;99.90
52709;DHT22;38606;52.986;6.980;2023-04-07T11:38:27;13.20;99.90
52709;DHT22;38606;52.986;6.980;2023-04-07T11:40:54;13.40;99.90
52709;DHT22;38606;52.986;6.980;2023-04-07T11:43:25;13.20;99.90
52709;DHT22;38606;52.986;6.980;2023-04-07T11:46:12;13.20;99.90
52709;DHT22;38606;52.986;6.980;2023-04-07T11:48:40;13.30;99.90
52709;DHT22;38606;52.986;6.980;2023-04-07T11:51:15;13.30;99.90
52709;DHT22;38606;52.986;6.980;2023-04-07T11:53:41;13.20;99.90
52709;DHT22;38606;52.986;6.980;2023-04-07T11:56:12;13.50;99.90
52709;DHT22;38606;52.986;6.980;2023-04-07T11:58:53;13.00;99.90
52709;DHT22;38606;52.986;6.980;2023-04-07T12:01:21;13.30;99.90
52709;DHT22;38606;52.986;6.980;2023-04-07T12:03:56;13.00;99.90
52709;DHT22;38606;52.986;6.980;2023-04-07T12:06:34;13.30;99.90
52709;DHT22;38606;52.986;6.980;2023-04-07T12:09:07;13.30;99.90
52709;DHT22;38606;52.986;6.980;2023-04-07T12:11:34;13.30;99.90
52709;DHT22;38606;52.986;6.980;2023-04-07T12:14:01;13.20;99.90
52709;DHT22;38606;52.986;6.980;2023-04-07T12:16:29;13.30;99.90
52709;DHT22;38606;52.986;6.980;2023-04-07T12:18:55;13.20;99.90
52709;DHT22;38606;52.986;6.980;2023-04-07T12:21:22;13.10;99.90
52709;DHT22;38606;52.986;6.980;2023-04-07T12:23:50;13.10;99.90
52709;DHT22;38606;52.986;6.980;2023-04-07T12:26:16;13.10;99.90
52709;DHT22;38606;52.986;6.980;2023-04-07T12:28:42;13.00;99.90
52709;DHT22;38606;52.986;6.980;2023-04-07T12:31:07;13.20;99.90
52709;DHT22;38606;52.986;6.980;2023-04-07T12:33:33;13.20;99.90
52709;DHT22;38606;52.986;6.980;2023-04-07T12:35:59;13.40;99.90
52709;DHT22;38606;52.986;6.980;2023-04-07T12:38:25;13.20;99.90
52709;DHT22;38606;52.986;6.980;2023-04-07T12:40:51;13.30;99.90
52709;DHT22;38606;52.986;6.980;2023-04-07T12:43:17;13.20;99.90
52709;DHT22;38606;52.986;6.980;2023-04-07T12:45:43;13.30;99.90
52709;DHT22;38606;52.986;6.980;2023-04-07T12:48:09;13.20;99.90
52709;DHT22;38606;52.986;6.980;2023-04-07T12:50:35;13.10;99.90
52709;DHT22;38606;52.986;6.980;2023-04-07T12:53:01;13.10;99.90
52709;DHT22;38606;52.986;6.980;2023-04-07T12:55:30;13.40;99.90
52709;DHT22;38606;52.986;6.980;2023-04-07T12:57:58;13.60;99.90
52709;DHT22;38606;52.986;6.980;2023-04-07T13:00:24;13.30;99.90
52709;DHT22;38606;52.986;6.980;2023-04-07T13:02:50;13.80;99.90
52709;DHT22;38606;52.986;6.980;2023-04-07T13:05:16;13.90;99.90
52709;DHT22;38606;52.986;6.980;2023-04-07T13:07:43;13.90;99.90
52709;DHT22;38606;52.986;6.980;2023-04-07T13:10:09;14.00;99.90
52709;DHT22;38606;52.986;6.980;2023-04-07T13:12:35;14.10;99.90
52709;DHT22;38606;52.986;6.980;2023-04-07T13:15:01;14.20;99.90
52709;DHT22;38606;52.986;6.980;2023-04-07T13:17:27;14.20;99.90
52709;DHT22;38606;52.986;6.980;2023-04-07T13:19:53;14.20;99.90
52709;DHT22;38606;52.986;6.980;2023-04-07T13:22:20;14.00;99.90
52709;DHT22;38606;52.986;6.980;2023-04-07T13:24:46;14.10;99.90
52709;DHT22;38606;52.986;6.980;2023-04-07T13:27:12;13.90;99.90
52709;DHT22;38606;52.986;6.980;2023-04-07T13:29:38;13.10;99.90
52709;DHT22;38606;52.986;6.980;2023-04-07T13:32:08;13.60;99.90
52709;DHT22;38606;52.986;6.980;2023-04-07T13:34:35;13.80;99.90
52709;DHT22;38606;52.986;6.980;2023-04-07T13:37:02;14.00;99.90
52709;DHT22;38606;52.986;6.980;2023-04-07T13:39:29;13.80;99.90
52709;DHT22;38606;52.986;6.980;2023-04-07T13:41:55;13.60;99.90
52709;DHT22;38606;52.986;6.980;2023-04-07T13:44:22;13.60;99.90
52709;DHT22;38606;52.986;6.980;2023-04-07T13:46:48;13.60;99.90
52709;DHT22;38606;52.986;6.980;2023-04-07T13:49:14;13.90;99.90
52709;DHT22;38606;52.986;6.980;2023-04-07T13:51:40;13.90;99.90
52709;DHT22;38606;52.986;6.980;2023-04-07T13:54:06;13.90;99.90
52709;DHT22;38606;52.986;6.980;2023-04-07T13:56:32;13.90;99.90
52709;DHT22;38606;52.986;6.980;2023-04-07T13:59:00;14.00;99.90
52709;DHT22;38606;52.986;6.980;2023-04-07T14:01:26;14.00;99.90
52709;DHT22;38606;52.986;6.980;2023-04-07T14:03:52;14.00;99.90
52709;DHT22;38606;52.986;6.980;2023-04-07T14:06:17;14.00;99.90
52709;DHT22;38606;52.986;6.980;2023-04-07T14:08:47;14.20;99.90
52709;DHT22;38606;52.986;6.980;2023-04-07T14:11:20;14.00;99.90
52709;DHT22;38606;52.986;6.980;2023-04-07T14:13:48;14.10;99.90
52709;DHT22;38606;52.986;6.980;2023-04-07T14:16:14;14.10;99.90
52709;DHT22;38606;52.986;6.980;2023-04-07T14:18:40;14.00;99.90
52709;DHT22;38606;52.986;6.980;2023-04-07T14:21:06;14.00;99.90
52709;DHT22;38606;52.986;6.980;2023-04-07T14:23:32;13.80;99.90
52709;DHT22;38606;52.986;6.980;2023-04-07T14:25:58;14.10;99.90
52709;DHT22;38606;52.986;6.980;2023-04-07T14:28:26;14.00;99.90
52709;DHT22;38606;52.986;6.980;2023-04-07T14:30:52;14.00;99.90
52709;DHT22;38606;52.986;6.980;2023-04-07T14:33:22;13.60;99.90
52709;DHT22;38606;52.986;6.980;2023-04-07T14:35:48;13.70;99.90
52709;DHT22;38606;52.986;6.980;2023-04-07T14:38:14;13.70;99.90
52709;DHT22;38606;52.986;6.980;2023-04-07T14:40:40;13.70;99.90
52709;DHT22;38606;52.986;6.980;2023-04-07T14:43:06;13.60;99.90
52709;DHT22;38606;52.986;6.980;2023-04-07T14:45:33;13.70;99.90
52709;DHT22;38606;52.986;6.980;2023-04-07T14:48:00;13.70;99.90
52709;DHT22;38606;52.986;6.980;2023-04-07T14:50:26;13.60;99.90
52709;DHT22;38606;52.986;6.980;2023-04-07T14:52:52;13.50;99.90
52709;DHT22;38606;52.986;6.980;2023-04-07T14:55:18;13.90;99.90
52709;DHT22;38606;52.986;6.980;2023-04-07T14:57:44;13.60;99.90
52709;DHT22;38606;52.986;6.980;2023-04-07T15:00:10;13.60;99.40
52709;DHT22;38606;52.986;6.980;2023-04-07T15:02:36;13.50;98.80
52709;DHT22;38606;52.986;6.980;2023-04-07T15:05:02;13.40;99.30
52709;DHT22;38606;52.986;6.980;2023-04-07T15:07:28;12.00;98.30
52709;DHT22;38606;52.986;6.980;2023-04-07T15:09:53;13.30;98.40
52709;DHT22;38606;52.986;6.980;2023-04-07T15:12:19;13.30;98.40
52709;DHT22;38606;52.986;6.980;2023-04-07T15:14:45;13.20;98.90
52709;DHT22;38606;52.986;6.980;2023-04-07T15:17:11;13.40;99.20
52709;DHT22;38606;52.986;6.980;2023-04-07T15:19:37;13.20;98.80
52709;DHT22;38606;52.986;6.980;2023-04-07T15:22:03;13.00;99.30
52709;DHT22;38606;52.986;6.980;2023-04-07T15:24:28;13.10;99.50
52709;DHT22;38606;52.986;6.980;2023-04-07T15:26:54;13.00;99.40
52709;DHT22;38606;52.986;6.980;2023-04-07T15:29:20;13.20;99.30
52709;DHT22;38606;52.986;6.980;2023-04-07T15:31:46;13.00;99.30
52709;DHT22;38606;52.986;6.980;2023-04-07T15:34:12;12.80;99.00
52709;DHT22;38606;52.986;6.980;2023-04-07T15:36:38;13.00;99.00
52709;DHT22;38606;52.986;6.980;2023-04-07T15:39:05;12.90;98.60
52709;DHT22;38606;52.986;6.980;2023-04-07T15:41:33;13.00;98.90
52709;DHT22;38606;52.986;6.980;2023-04-07T15:44:00;12.80;99.50
52709;DHT22;38606;52.986;6.980;2023-04-07T15:46:26;12.70;99.30
52709;DHT22;38606;52.986;6.980;2023-04-07T15:48:52;13.00;99.60
52709;DHT22;38606;52.986;6.980;2023-04-07T15:51:18;12.80;99.50
52709;DHT22;38606;52.986;6.980;2023-04-07T15:53:43;12.80;99.50
52709;DHT22;38606;52.986;6.980;2023-04-07T15:56:09;12.90;99.50
52709;DHT22;38606;52.986;6.980;2023-04-07T15:58:35;13.10;99.60
52709;DHT22;38606;52.986;6.980;2023-04-07T16:01:01;12.70;99.90
52709;DHT22;38606;52.986;6.980;2023-04-07T16:03:27;12.90;99.90